Country
Station

 

Weather  for  Linkoping/Malmen  -  Sweden    Sweden

  
18 °C (64 °F)
    
 
 

Current METAR for Linkoping/Malmen is :

ESCF 201950Z AUTO 29004KT 9999 FEW029/// 18/16 Q1007

 

This is a report for Linkoping/Malmen - Sweden.
 
The report was made 35 minutes ago, at 19:50 UTC .
The wind was blowing at a speed of 2.1 meters per second (4.6 miles per hour) from west/northwest (290°).
 
The temperature was 18 °C (64 °F), with a dew-point at 16 °C (61 °F).
The atmospheric pressure was 1007 hPa (29.74 inHg).
The relative humidity was 88.1%.
 
The overall visibility was greater than 10 kilometers (6.2 miles).
 

 
 
 
 

Country :   A   B   C   D   E   F   G   H   I   J   K   L   M   N   O   P   Q   R   S   T   U   V   W   Y   Z

 

Site Info  |  Disclaimer  |  Credits  |  Privacy
Contact us  |  Add to favorites
© 2013-2019 METARs - All rights reserved